RYR6NY EIDW-EIKY

Flight info

Callsign RYR6NY
Flight time 0h 30m
Altitude 24000
Route PELIG2J PELIG DCT KER
Aircraft B738/M-SDE3FGILRWY/SB1

Departure

Time 2026-04-26 11:06
Airport Dublin Airport (EIDW)

Arrival

Time 2026-04-26 11:36
Airport Kerry Airport (EIKY)
Time Latitude Longitude Altitude Speed Heading
2026-04-26 10:46 53.43100 -6.24764 250 ft 0 kts 185°
2026-04-26 11:00 53.43107 -6.24763 250 ft 2 kts 185°
2026-04-26 11:00 53.43122 -6.24761 250 ft 2 kts 185°
2026-04-26 11:00 53.43137 -6.24759 250 ft 2 kts 185°
2026-04-26 11:01 53.43150 -6.24757 250 ft 0 kts 185°
2026-04-26 11:01 53.43161 -6.24756 250 ft 2 kts 167°
2026-04-26 11:01 53.43175 -6.24767 250 ft 2 kts 142°
2026-04-26 11:01 53.43185 -6.24785 250 ft 2 kts 117°
2026-04-26 11:02 53.43188 -6.24803 250 ft 0 kts 98°
2026-04-26 11:02 53.43189 -6.24814 250 ft 0 kts 95°
2026-04-26 11:04 53.43187 -6.24766 250 ft 10 kts 90°
2026-04-26 11:04 53.43195 -6.24652 250 ft 6 kts 88°
2026-04-26 11:04 53.43194 -6.24578 250 ft 6 kts 94°
2026-04-26 11:04 53.43193 -6.24469 250 ft 9 kts 73°
2026-04-26 11:05 53.43252 -6.24408 250 ft 15 kts 11°
2026-04-26 11:05 53.43357 -6.24524 250 ft 16 kts 299°
2026-04-26 11:05 53.43453 -6.24556 250 ft 14 kts
2026-04-26 11:05 53.43525 -6.24580 250 ft 10 kts 279°
2026-04-26 11:06 53.43545 -6.24949 250 ft 78 kts 274°
2026-04-26 11:06 53.43628 -6.26439 307 ft 171 kts 275°
2026-04-26 11:06 53.43734 -6.28513 1413 ft 190 kts 278°
2026-04-26 11:06 53.44230 -6.30651 2240 ft 222 kts 301°
2026-04-26 11:07 53.45276 -6.32858 2910 ft 255 kts 310°
2026-04-26 11:07 53.46392 -6.35036 4215 ft 246 kts 309°
2026-04-26 11:07 53.47450 -6.37237 5016 ft 240 kts 306°
2026-04-26 11:07 53.48460 -6.39493 5510 ft 245 kts 304°
2026-04-26 11:08 53.49456 -6.41820 6002 ft 247 kts 304°
2026-04-26 11:08 53.50449 -6.44174 6489 ft 249 kts 303°
2026-04-26 11:08 53.51279 -6.46719 6967 ft 249 kts 283°
2026-04-26 11:08 53.51255 -6.49550 7489 ft 249 kts 252°
2026-04-26 11:09 53.50463 -6.52139 8274 ft 248 kts 237°
2026-04-26 11:09 53.49567 -6.54597 8941 ft 249 kts 239°
2026-04-26 11:09 53.48699 -6.57142 9708 ft 258 kts 240°
2026-04-26 11:09 53.47803 -6.59824 10426 ft 270 kts 240°
2026-04-26 11:10 53.46869 -6.62610 11077 ft 283 kts 240°
2026-04-26 11:10 53.45860 -6.65471 11951 ft 288 kts 238°
2026-04-26 11:10 53.44786 -6.68322 12900 ft 291 kts 237°
2026-04-26 11:10 53.43700 -6.71155 13786 ft 296 kts 237°
2026-04-26 11:11 53.42577 -6.74094 14716 ft 300 kts 237°
2026-04-26 11:11 53.41457 -6.77034 15610 ft 305 kts 238°
2026-04-26 11:11 53.40332 -6.80003 16529 ft 307 kts 238°
2026-04-26 11:11 53.39185 -6.83030 17375 ft 312 kts 238°
2026-04-26 11:12 53.38014 -6.86116 18216 ft 316 kts 238°
2026-04-26 11:12 53.36841 -6.89208 19090 ft 319 kts 238°
2026-04-26 11:12 53.35641 -6.92375 19911 ft 323 kts 238°
2026-04-26 11:12 53.34438 -6.95554 20713 ft 326 kts 238°
2026-04-26 11:13 53.33215 -6.98786 21463 ft 331 kts 238°
2026-04-26 11:13 53.31987 -7.02026 22239 ft 333 kts 238°
2026-04-26 11:13 53.30749 -7.05281 22966 ft 337 kts 238°
2026-04-26 11:13 53.29483 -7.08595 23713 ft 339 kts 237°
2026-04-26 11:14 53.28204 -7.11939 24182 ft 344 kts 237°
2026-04-26 11:14 53.26922 -7.15286 24234 ft 344 kts 237°
2026-04-26 11:14 53.25627 -7.18661 24233 ft 342 kts 237°
2026-04-26 11:14 53.24350 -7.21988 24240 ft 341 kts 238°
2026-04-26 11:15 53.23053 -7.25364 24238 ft 342 kts 237°
2026-04-26 11:15 53.21773 -7.28683 24242 ft 342 kts 237°
2026-04-26 11:15 53.20477 -7.32045 24243 ft 342 kts 238°
2026-04-26 11:15 53.19155 -7.35302 24241 ft 342 kts 234°
2026-04-26 11:16 53.17692 -7.38455 24243 ft 343 kts 232°
2026-04-26 11:16 53.16198 -7.41489 24241 ft 343 kts 231°
2026-04-26 11:16 53.14656 -7.44582 24243 ft 344 kts 231°
2026-04-26 11:16 53.13148 -7.47619 24250 ft 343 kts 231°
2026-04-26 11:17 53.11646 -7.50670 24249 ft 343 kts 231°
2026-04-26 11:17 53.10142 -7.53740 24253 ft 343 kts 232°
2026-04-26 11:17 53.08638 -7.56822 24249 ft 342 kts 232°
2026-04-26 11:17 53.07146 -7.59882 24262 ft 343 kts 232°
2026-04-26 11:18 53.05645 -7.62961 24254 ft 343 kts 232°
2026-04-26 11:18 53.04145 -7.66034 24253 ft 343 kts 231°
2026-04-26 11:18 53.02640 -7.69119 24256 ft 344 kts 231°
2026-04-26 11:18 53.01141 -7.72190 24248 ft 344 kts 231°
2026-04-26 11:19 52.99637 -7.75269 24256 ft 343 kts 231°
2026-04-26 11:19 52.98139 -7.78332 24253 ft 344 kts 231°
2026-04-26 11:19 52.96622 -7.81433 24256 ft 343 kts 231°
2026-04-26 11:19 52.95135 -7.84469 24252 ft 345 kts 231°
2026-04-26 11:20 52.93625 -7.87542 24257 ft 345 kts 231°
2026-04-26 11:20 52.92614 -7.89597 24256 ft 346 kts 231°
2026-04-26 11:20 52.90596 -7.93693 24248 ft 345 kts 231°
2026-04-26 11:20 52.89074 -7.96778 24257 ft 343 kts 231°
2026-04-26 11:21 52.87557 -7.99856 24261 ft 345 kts 231°
2026-04-26 11:21 52.86026 -8.02956 24256 ft 343 kts 231°
2026-04-26 11:21 52.84524 -8.05994 24241 ft 343 kts 231°
2026-04-26 11:21 52.83031 -8.09010 23932 ft 339 kts 231°
2026-04-26 11:22 52.81544 -8.12005 23363 ft 339 kts 231°
2026-04-26 11:22 52.80041 -8.15033 22791 ft 340 kts 231°
2026-04-26 11:22 52.78546 -8.18039 22220 ft 340 kts 231°
2026-04-26 11:22 52.77060 -8.21026 21632 ft 341 kts 231°
2026-04-26 11:23 52.75545 -8.24067 21045 ft 341 kts 231°
2026-04-26 11:23 52.74043 -8.27079 20463 ft 342 kts 231°
2026-04-26 11:23 52.72552 -8.30070 19880 ft 342 kts 231°
2026-04-26 11:23 52.71038 -8.33103 19292 ft 342 kts 232°
2026-04-26 11:24 52.69529 -8.36115 18704 ft 341 kts 232°
2026-04-26 11:24 52.68028 -8.39105 18124 ft 341 kts 232°
2026-04-26 11:24 52.66533 -8.42080 17550 ft 340 kts 232°
2026-04-26 11:24 52.65029 -8.45071 16975 ft 340 kts 232°
2026-04-26 11:25 52.63514 -8.48080 16402 ft 339 kts 232°
2026-04-26 11:25 52.62018 -8.51048 15823 ft 338 kts 232°
2026-04-26 11:25 52.60519 -8.54019 15249 ft 337 kts 232°
2026-04-26 11:25 52.59034 -8.56959 14671 ft 336 kts 232°
2026-04-26 11:26 52.57555 -8.59884 14112 ft 335 kts 232°
2026-04-26 11:26 52.56067 -8.62828 13523 ft 334 kts 232°
2026-04-26 11:26 52.54576 -8.65775 12946 ft 333 kts 231°
2026-04-26 11:26 52.53101 -8.68686 12383 ft 332 kts 231°
2026-04-26 11:27 52.51636 -8.71575 11820 ft 330 kts 231°
2026-04-26 11:27 52.50171 -8.74460 11256 ft 328 kts 230°
2026-04-26 11:27 52.48725 -8.77304 10757 ft 324 kts 230°
2026-04-26 11:27 52.47286 -8.80126 10252 ft 321 kts 230°
2026-04-26 11:28 52.45869 -8.82903 9763 ft 318 kts 230°
2026-04-26 11:28 52.44450 -8.85685 9267 ft 315 kts 230°
2026-04-26 11:28 52.43052 -8.88427 8762 ft 312 kts 230°
2026-04-26 11:28 52.41668 -8.91132 8256 ft 310 kts 230°
2026-04-26 11:29 52.40297 -8.93800 7766 ft 307 kts 231°
2026-04-26 11:29 52.38916 -8.96508 7251 ft 305 kts 231°
2026-04-26 11:29 52.37559 -8.99142 6748 ft 303 kts 230°
2026-04-26 11:29 52.36203 -9.01763 6248 ft 301 kts 230°
2026-04-26 11:30 52.34864 -9.04358 5751 ft 300 kts 231°
2026-04-26 11:30 52.33978 -9.06075 5420 ft 298 kts 230°
2026-04-26 11:30 52.32205 -9.09522 4756 ft 296 kts 231°
2026-04-26 11:30 52.30875 -9.12120 4249 ft 295 kts 231°
2026-04-26 11:31 52.29557 -9.14667 3750 ft 293 kts 230°
2026-04-26 11:31 52.28253 -9.17171 3256 ft 292 kts 230°
2026-04-26 11:31 52.26967 -9.19657 2971 ft 277 kts 231°
2026-04-26 11:31 52.25782 -9.21977 2961 ft 255 kts 231°
2026-04-26 11:32 52.24708 -9.24087 2967 ft 230 kts 231°
2026-04-26 11:32 52.23806 -9.26086 2961 ft 205 kts 242°
2026-04-26 11:32 52.23240 -9.28068 2961 ft 183 kts 250°
2026-04-26 11:32 52.22809 -9.29922 2967 ft 168 kts 251°
2026-04-26 11:33 52.22418 -9.31691 2959 ft 164 kts 252°
2026-04-26 11:33 52.22039 -9.33463 2773 ft 166 kts 252°
2026-04-26 11:33 52.21661 -9.35257 2491 ft 168 kts 253°
2026-04-26 11:33 52.21284 -9.37058 2233 ft 163 kts 253°
2026-04-26 11:34 52.20925 -9.38768 1975 ft 154 kts 253°
2026-04-26 11:34 52.20588 -9.40380 1712 ft 146 kts 253°
2026-04-26 11:34 52.20272 -9.41899 1497 ft 138 kts 253°
2026-04-26 11:34 52.19968 -9.43359 1290 ft 137 kts 253°
2026-04-26 11:35 52.19649 -9.44813 1061 ft 137 kts 252°
2026-04-26 11:35 52.19356 -9.46282 852 ft 137 kts 254°
2026-04-26 11:35 52.19054 -9.47753 632 ft 138 kts 253°
2026-04-26 11:35 52.18747 -9.49253 415 ft 145 kts 253°
2026-04-26 11:36 52.18429 -9.50746 194 ft 135 kts 251°
2026-04-26 11:36 52.18151 -9.52083 114 ft 100 kts 253°
2026-04-26 11:36 52.17998 -9.52792 114 ft 41 kts 254°